Time;durP1;ratioP1;P1;durP2;ratioP2;P2;SDS_P1;SDS_P2;PMS_P1;PMS_P2;Temp;Humidity;BMP_temperature;BMP_pressure;BME280_temperature;BME280_humidity;BME280_pressure;Samples;Min_cycle;Max_cycle;Signal;HPM_P1;HPM_P2
2022/01/03 00:01:28;;;;;;;1999.90;999.90;;;11.00;99.90;;;;;;4971980;28;20507;-68
2022/01/03 00:03:55;;;;;;;1999.90;999.90;;;10.90;99.90;;;;;;4972049;28;20828;-68
2022/01/03 00:06:21;;;;;;;1999.90;999.90;;;11.00;99.90;;;;;;4971813;28;20454;-68
2022/01/03 00:08:47;;;;;;;1999.90;999.90;;;11.00;99.90;;;;;;4971926;28;20429;-69
2022/01/03 00:11:16;;;;;;;1999.90;999.90;;;10.90;99.90;;;;;;4971821;28;20413;-69
2022/01/03 00:13:46;;;;;;;1999.90;999.90;;;10.90;99.90;;;;;;4971764;28;20496;-69
2022/01/03 00:16:12;;;;;;;1999.90;999.90;;;10.90;99.90;;;;;;4971578;28;20508;-68
2022/01/03 00:18:38;;;;;;;1999.90;999.90;;;10.90;99.90;;;;;;4971704;28;20519;-69
2022/01/03 00:21:09;;;;;;;1999.90;999.90;;;10.80;99.90;;;;;;4971814;28;20172;-69
2022/01/03 00:23:38;;;;;;;1999.90;999.90;;;10.80;99.90;;;;;;4972039;28;20409;-71
2022/01/03 00:26:06;;;;;;;1999.90;999.90;;;10.80;99.90;;;;;;4971868;28;20428;-71
2022/01/03 00:28:49;;;;;;;1999.90;999.90;;;10.80;99.90;;;;;;4972064;28;20441;-71
2022/01/03 00:31:17;;;;;;;1999.90;999.90;;;10.80;99.90;;;;;;4972337;28;20443;-71
2022/01/03 00:33:44;;;;;;;1999.90;999.90;;;10.90;99.90;;;;;;4972403;28;20401;-70
2022/01/03 00:36:10;;;;;;;1999.90;999.90;;;10.90;99.90;;;;;;4972334;28;20843;-71
2022/01/03 00:38:36;;;;;;;1999.90;999.90;;;10.80;99.90;;;;;;4972774;28;20471;-71
2022/01/03 00:41:02;;;;;;;1999.90;999.90;;;10.80;99.90;;;;;;4971843;28;20234;-71
2022/01/03 00:43:29;;;;;;;1999.90;999.90;;;10.60;99.90;;;;;;4972273;28;20784;-71
2022/01/03 00:45:55;;;;;;;1999.90;999.90;;;10.50;99.90;;;;;;4971675;28;20898;-71
2022/01/03 00:48:22;;;;;;;1999.90;999.90;;;10.30;99.90;;;;;;4971794;28;20965;-70
2022/01/03 00:50:48;;;;;;;1999.90;999.90;;;10.30;99.90;;;;;;4972085;28;20452;-71
2022/01/03 00:53:15;;;;;;;1999.90;999.90;;;10.30;99.90;;;;;;4971637;28;20458;-70
2022/01/03 00:56:02;;;;;;;1999.90;999.90;;;10.30;99.90;;;;;;4971381;28;20408;-71
2022/01/03 00:58:35;;;;;;;1999.90;999.90;;;10.30;99.90;;;;;;4971849;28;20426;-70
2022/01/03 01:01:02;;;;;;;1999.90;999.90;;;10.30;99.90;;;;;;4971740;28;20499;-71
2022/01/03 01:03:34;;;;;;;1999.90;999.90;;;10.30;99.90;;;;;;4971808;28;20409;-70
2022/01/03 01:06:03;;;;;;;1999.90;999.90;;;10.30;99.90;;;;;;4971334;28;20418;-70
2022/01/03 01:08:31;;;;;;;1999.90;999.90;;;10.40;99.90;;;;;;4971403;28;20527;-69
2022/01/03 01:10:58;;;;;;;1999.90;999.90;;;10.30;99.90;;;;;;4970990;28;20427;-69
2022/01/03 01:13:24;;;;;;;1999.90;999.90;;;10.40;99.90;;;;;;4970823;28;20501;-69
2022/01/03 01:15:50;;;;;;;1999.90;999.90;;;10.40;99.90;;;;;;4970534;28;20404;-69
2022/01/03 01:18:16;;;;;;;1999.90;999.90;;;10.40;99.90;;;;;;4970769;28;20205;-69
2022/01/03 01:20:42;;;;;;;1999.90;999.90;;;10.50;99.90;;;;;;4971026;28;20269;-69
2022/01/03 01:23:10;;;;;;;1999.90;999.90;;;10.40;99.90;;;;;;4970760;28;20497;-69
2022/01/03 01:28:08;;;;;;;1999.90;999.90;;;10.50;99.90;;;;;;4970680;28;21004;-69
2022/01/03 01:30:34;;;;;;;1999.90;999.90;;;10.50;99.90;;;;;;4970675;28;20404;-69
2022/01/03 01:33:11;;;;;;;1999.90;999.90;;;10.50;99.90;;;;;;4970608;28;20518;-69
2022/01/03 01:35:46;;;;;;;1999.90;999.90;;;10.50;99.90;;;;;;4970504;28;20498;-69
2022/01/03 01:38:17;;;;;;;1999.90;999.90;;;10.50;99.90;;;;;;4970629;28;20840;-69
2022/01/03 01:40:51;;;;;;;1999.90;999.90;;;10.60;99.90;;;;;;4970504;28;20414;-69
2022/01/03 01:43:34;;;;;;;1999.90;999.90;;;10.60;99.90;;;;;;4970747;28;20425;-69
2022/01/03 01:46:02;;;;;;;1999.90;999.90;;;10.60;99.90;;;;;;4970263;28;20411;-69
2022/01/03 01:48:32;;;;;;;1999.90;999.90;;;10.70;99.90;;;;;;4970309;28;20463;-69
2022/01/03 01:50:59;;;;;;;1999.90;999.90;;;10.70;99.90;;;;;;4970474;28;20463;-69
2022/01/03 01:53:26;;;;;;;1999.90;999.90;;;10.70;99.90;;;;;;4970126;28;20464;-69
2022/01/03 01:55:55;;;;;;;1999.90;999.90;;;10.60;99.90;;;;;;4970077;28;20435;-69
2022/01/03 01:58:20;;;;;;;1999.90;999.90;;;10.60;99.90;;;;;;4970282;28;20433;-69
2022/01/03 02:00:55;;;;;;;1999.90;999.90;;;10.60;99.90;;;;;;4970318;28;20415;-69
2022/01/03 02:03:26;;;;;;;1999.90;999.90;;;10.70;99.90;;;;;;4970330;28;20192;-68
2022/01/03 02:06:04;;;;;;;1999.90;999.90;;;10.70;99.90;;;;;;4969920;28;20411;-69
2022/01/03 02:08:42;;;;;;;1999.90;999.90;;;10.70;99.90;;;;;;4970180;28;20445;-68
2022/01/03 02:11:26;;;;;;;1999.90;999.90;;;10.70;99.90;;;;;;4970144;28;20459;-69
2022/01/03 02:13:52;;;;;;;1999.90;999.90;;;10.60;99.90;;;;;;4970202;28;20463;-69
2022/01/03 02:16:18;;;;;;;1999.90;999.90;;;10.60;99.90;;;;;;4969900;28;20440;-69
2022/01/03 02:18:43;;;;;;;1999.90;999.90;;;10.60;99.90;;;;;;4970055;28;20467;-69
2022/01/03 02:21:09;;;;;;;1999.90;999.90;;;10.60;99.90;;;;;;4970239;28;20417;-69
2022/01/03 02:23:36;;;;;;;1999.90;999.90;;;10.60;99.90;;;;;;4970216;28;20212;-69
2022/01/03 02:26:02;;;;;;;1999.90;999.90;;;10.60;99.90;;;;;;4969751;28;20189;-69
2022/01/03 02:28:27;;;;;;;1999.90;999.90;;;10.60;99.90;;;;;;4970012;28;20433;-69
2022/01/03 02:30:53;;;;;;;1999.90;999.90;;;10.50;99.90;;;;;;4969941;28;20204;-69
2022/01/03 02:33:19;;;;;;;1999.90;999.90;;;10.50;99.90;;;;;;4970199;28;20326;-69
2022/01/03 02:35:46;;;;;;;1999.90;999.90;;;10.60;99.90;;;;;;4969856;28;20226;-68
2022/01/03 02:38:13;;;;;;;1999.90;999.90;;;10.50;99.90;;;;;;4969938;28;20446;-68
2022/01/03 02:40:39;;;;;;;1999.90;999.90;;;10.50;99.90;;;;;;4969888;28;20411;-68
2022/01/03 02:43:04;;;;;;;1999.90;999.90;;;10.50;99.90;;;;;;4969763;28;20416;-69
2022/01/03 02:45:30;;;;;;;1999.90;999.90;;;10.50;99.90;;;;;;4969745;28;20417;-69
2022/01/03 02:48:07;;;;;;;1999.90;999.90;;;10.50;99.90;;;;;;4969771;28;20197;-68
2022/01/03 02:50:34;;;;;;;1999.90;999.90;;;10.60;99.90;;;;;;4970066;28;20227;-68
2022/01/03 02:53:00;;;;;;;1999.90;999.90;;;10.60;99.90;;;;;;4970132;28;20597;-67
2022/01/03 02:55:26;;;;;;;1999.90;999.90;;;10.50;99.90;;;;;;4969553;28;20457;-70
2022/01/03 02:57:56;;;;;;;1999.90;999.90;;;10.50;99.90;;;;;;4969932;28;20417;-71
2022/01/03 03:00:28;;;;;;;1999.90;999.90;;;10.50;99.90;;;;;;4969773;28;20411;-70
2022/01/03 03:02:54;;;;;;;1999.90;999.90;;;10.50;99.90;;;;;;4970017;28;20842;-70
2022/01/03 03:05:20;;;;;;;1999.90;999.90;;;10.50;99.90;;;;;;4971508;28;20412;-69
2022/01/03 03:07:47;;;;;;;1999.90;999.90;;;10.60;99.90;;;;;;4972934;28;20474;-68
2022/01/03 03:10:16;;;;;;;1999.90;999.90;;;10.60;99.90;;;;;;4973168;28;20586;-68
2022/01/03 03:12:43;;;;;;;1999.90;999.90;;;10.70;99.90;;;;;;4972960;28;20452;-70
2022/01/03 03:15:09;;;;;;;1999.90;999.90;;;10.60;99.90;;;;;;4972997;28;20407;-70
2022/01/03 03:17:39;;;;;;;1999.90;999.90;;;10.60;99.90;;;;;;4972933;28;20448;-68
2022/01/03 03:20:12;;;;;;;1999.90;999.90;;;10.50;99.90;;;;;;4973063;28;20960;-68
2022/01/03 03:22:39;;;;;;;1999.90;999.90;;;10.50;99.90;;;;;;4973041;28;20420;-68
2022/01/03 03:25:12;;;;;;;1999.90;999.90;;;10.40;99.90;;;;;;4972436;28;20413;-68
2022/01/03 03:27:47;;;;;;;1999.90;999.90;;;10.40;99.90;;;;;;4972994;28;20801;-68
2022/01/03 03:30:19;;;;;;;1999.90;999.90;;;10.40;99.90;;;;;;4972813;28;20408;-68
2022/01/03 03:32:46;;;;;;;1999.90;999.90;;;10.50;99.90;;;;;;4972643;28;21279;-68
2022/01/03 03:35:12;;;;;;;1999.90;999.90;;;10.50;99.90;;;;;;4972427;28;20417;-68
2022/01/03 03:37:38;;;;;;;1999.90;999.90;;;10.40;99.90;;;;;;4972513;28;20455;-68
2022/01/03 03:40:05;;;;;;;1999.90;999.90;;;10.40;99.90;;;;;;4972694;28;20444;-68
2022/01/03 03:42:31;;;;;;;1999.90;999.90;;;10.40;99.90;;;;;;4972618;28;20429;-69
2022/01/03 03:44:57;;;;;;;1999.90;999.90;;;10.40;99.90;;;;;;4971965;28;20906;-68
2022/01/03 03:47:22;;;;;;;1999.90;999.90;;;10.40;99.90;;;;;;4972267;28;20178;-69
2022/01/03 03:49:48;;;;;;;1999.90;999.90;;;10.30;99.90;;;;;;4972026;28;20456;-69
2022/01/03 03:52:14;;;;;;;1999.90;999.90;;;10.30;99.90;;;;;;4972129;28;20197;-68
2022/01/03 03:54:39;;;;;;;1999.90;999.90;;;10.30;99.90;;;;;;4971843;28;20188;-69
2022/01/03 03:57:05;;;;;;;1999.90;999.90;;;10.30;99.90;;;;;;4972171;28;20196;-69
2022/01/03 03:59:31;;;;;;;1999.90;999.90;;;10.30;99.90;;;;;;4972242;28;20208;-68
2022/01/03 04:01:57;;;;;;;1999.90;999.90;;;10.30;99.90;;;;;;4972167;28;20503;-68
2022/01/03 04:04:23;;;;;;;1999.90;999.90;;;10.20;99.90;;;;;;4971866;28;20191;-68
2022/01/03 04:06:50;;;;;;;1999.90;999.90;;;10.30;99.90;;;;;;4971851;28;20416;-68
2022/01/03 04:09:16;;;;;;;1999.90;999.90;;;10.30;99.90;;;;;;4972038;28;20445;-68
2022/01/03 04:11:42;;;;;;;1999.90;999.90;;;10.30;99.90;;;;;;4971880;28;20455;-68
2022/01/03 04:14:07;;;;;;;1999.90;999.90;;;10.20;99.90;;;;;;4971623;28;21174;-69
2022/01/03 04:16:34;;;;;;;1999.90;999.90;;;10.20;99.90;;;;;;4970577;28;20451;-68
2022/01/03 04:19:00;;;;;;;1999.90;999.90;;;10.30;99.90;;;;;;4971710;28;20678;-69
2022/01/03 04:21:26;;;;;;;1999.90;999.90;;;10.20;99.90;;;;;;4971858;28;20842;-69
2022/01/03 04:23:53;;;;;;;1999.90;999.90;;;10.20;99.90;;;;;;4971622;28;20409;-68
2022/01/03 04:26:19;;;;;;;1999.90;999.90;;;10.30;99.90;;;;;;4971454;28;20887;-69
2022/01/03 04:28:44;;;;;;;1999.90;999.90;;;10.30;99.90;;;;;;4971635;28;20431;-68
2022/01/03 04:31:10;;;;;;;1999.90;999.90;;;10.30;99.90;;;;;;4971616;28;20433;-68
2022/01/03 04:33:37;;;;;;;1999.90;999.90;;;10.30;99.90;;;;;;4971576;28;20192;-68
2022/01/03 04:36:04;;;;;;;1999.90;999.90;;;10.30;99.90;;;;;;4971193;28;20409;-68
2022/01/03 04:38:29;;;;;;;1999.90;999.90;;;10.30;99.90;;;;;;4971360;28;20516;-69
2022/01/03 04:40:55;;;;;;;1999.90;999.90;;;10.20;99.90;;;;;;4971468;28;20451;-68
2022/01/03 04:43:21;;;;;;;1999.90;999.90;;;10.20;99.90;;;;;;4971415;28;20272;-68
2022/01/03 04:45:46;;;;;;;1999.90;999.90;;;10.30;99.90;;;;;;4971167;28;20184;-69
2022/01/03 04:48:12;;;;;;;1999.90;999.90;;;10.20;99.90;;;;;;4971804;28;20210;-70
2022/01/03 04:50:37;;;;;;;1999.90;999.90;;;10.20;99.90;;;;;;4972590;28;20634;-68
2022/01/03 04:53:03;;;;;;;1999.90;999.90;;;10.20;99.90;;;;;;4971171;28;20670;-68
2022/01/03 04:55:29;;;;;;;1999.90;999.90;;;10.30;99.90;;;;;;4970993;28;20199;-69
2022/01/03 04:57:54;;;;;;;1999.90;999.90;;;10.30;99.90;;;;;;4971186;28;20201;-68
2022/01/03 05:00:20;;;;;;;1999.90;999.90;;;10.30;99.90;;;;;;4971182;28;20231;-68
2022/01/03 05:02:46;;;;;;;1999.90;999.90;;;10.30;99.90;;;;;;4971184;28;20187;-69
2022/01/03 05:05:12;;;;;;;1999.90;999.90;;;10.20;99.90;;;;;;4970773;28;20750;-69
2022/01/03 05:07:38;;;;;;;1999.90;999.90;;;10.20;99.90;;;;;;4971142;28;20189;-70
2022/01/03 05:10:04;;;;;;;1999.90;999.90;;;10.20;99.90;;;;;;4971191;28;20485;-68
2022/01/03 05:12:30;;;;;;;1999.90;999.90;;;10.20;99.90;;;;;;4971216;28;20631;-68
2022/01/03 05:14:56;;;;;;;1999.90;999.90;;;10.30;99.90;;;;;;4971045;28;20496;-67
2022/01/03 05:17:22;;;;;;;1999.90;999.90;;;10.30;99.90;;;;;;4972576;28;20547;-69
2022/01/03 05:19:47;;;;;;;1999.90;999.90;;;10.20;99.90;;;;;;4974563;28;20193;-69
2022/01/03 05:22:13;;;;;;;1999.90;999.90;;;10.20;99.90;;;;;;4973837;28;20423;-70
2022/01/03 05:24:38;;;;;;;1999.90;999.90;;;10.20;99.90;;;;;;4976756;28;20635;-70
2022/01/03 05:27:07;;;;;;;1999.90;999.90;;;10.20;99.90;;;;;;4975744;28;20214;-71
2022/01/03 05:29:34;;;;;;;1999.90;999.90;;;10.30;99.90;;;;;;4975345;28;20201;-71
2022/01/03 05:32:00;;;;;;;1999.90;999.90;;;10.20;99.90;;;;;;4975749;28;20547;-70
2022/01/03 05:34:27;;;;;;;1999.90;999.90;;;10.20;99.90;;;;;;4974526;28;20407;-70
2022/01/03 05:36:53;;;;;;;1999.90;999.90;;;10.20;99.90;;;;;;4974667;28;20413;-70
2022/01/03 05:39:18;;;;;;;1999.90;999.90;;;10.20;99.90;;;;;;4974465;28;20440;-71
2022/01/03 05:41:44;;;;;;;1999.90;999.90;;;10.20;99.90;;;;;;4975029;28;20420;-70
2022/01/03 05:44:10;;;;;;;1999.90;999.90;;;10.30;99.90;;;;;;4975858;28;20187;-69
2022/01/03 05:46:35;;;;;;;1999.90;999.90;;;10.30;99.90;;;;;;4976143;28;20579;-71
2022/01/03 05:49:01;;;;;;;1999.90;999.90;;;10.20;99.90;;;;;;4974441;28;20257;-70
2022/01/03 05:51:27;;;;;;;1999.90;999.90;;;10.20;99.90;;;;;;4974670;28;20177;-70
2022/01/03 05:53:53;;;;;;;1999.90;999.90;;;10.20;99.90;;;;;;4973199;28;20508;-71
2022/01/03 05:56:19;;;;;;;1999.90;999.90;;;10.30;99.90;;;;;;4974019;28;20184;-70
2022/01/03 05:58:46;;;;;;;1999.90;999.90;;;10.30;99.90;;;;;;4973296;28;20193;-70
2022/01/03 06:01:11;;;;;;;1999.90;999.90;;;10.30;99.90;;;;;;4970327;28;20929;-69
2022/01/03 06:03:39;;;;;;;1999.90;999.90;;;10.30;99.90;;;;;;4970294;28;20518;-70
2022/01/03 06:08:34;;;;;;;1999.90;999.90;;;10.30;99.90;;;;;;4970358;28;20427;-70
2022/01/03 06:11:00;;;;;;;1999.90;999.90;;;10.20;99.90;;;;;;4970155;28;20419;-70
2022/01/03 06:13:25;;;;;;;1999.90;999.90;;;10.20;99.90;;;;;;4970167;28;20197;-70
2022/01/03 06:15:51;;;;;;;1999.90;999.90;;;10.20;99.90;;;;;;4969867;28;20169;-69
2022/01/03 06:18:17;;;;;;;1999.90;999.90;;;10.20;99.90;;;;;;4970284;28;20196;-69
2022/01/03 06:20:45;;;;;;;1999.90;999.90;;;10.20;99.90;;;;;;4970047;28;20403;-69
2022/01/03 06:23:12;;;;;;;1999.90;999.90;;;10.20;99.90;;;;;;4970190;28;20414;-69
2022/01/03 06:25:38;;;;;;;1999.90;999.90;;;10.30;99.90;;;;;;4969840;28;20409;-69
2022/01/03 06:28:09;;;;;;;1999.90;999.90;;;10.30;99.90;;;;;;4969979;28;20439;-69
2022/01/03 06:30:35;;;;;;;1999.90;999.90;;;10.30;99.90;;;;;;4969967;28;20412;-70
2022/01/03 06:33:02;;;;;;;1999.90;999.90;;;10.20;99.90;;;;;;4969869;28;20463;-69
2022/01/03 06:35:28;;;;;;;1999.90;999.90;;;10.20;99.90;;;;;;4969801;28;20550;-69
2022/01/03 06:37:54;;;;;;;1999.90;999.90;;;10.20;99.90;;;;;;4969851;28;20420;-70
2022/01/03 06:40:19;;;;;;;1999.90;999.90;;;10.20;99.90;;;;;;4971767;28;20764;-69
2022/01/03 06:42:45;;;;;;;1999.90;999.90;;;10.20;99.90;;;;;;4973279;28;20200;-69
2022/01/03 06:45:11;;;;;;;1999.90;999.90;;;10.20;99.90;;;;;;4972893;28;20259;-70
2022/01/03 06:47:36;;;;;;;1999.90;999.90;;;10.20;99.90;;;;;;4973127;28;20177;-69
2022/01/03 06:50:03;;;;;;;1999.90;999.90;;;10.20;99.90;;;;;;4972998;28;20276;-69
2022/01/03 06:52:29;;;;;;;1999.90;999.90;;;10.10;99.90;;;;;;4973125;28;20216;-70
2022/01/03 06:54:55;;;;;;;1999.90;999.90;;;10.10;99.90;;;;;;4972804;28;20409;-69
2022/01/03 06:57:21;;;;;;;1999.90;999.90;;;10.10;99.90;;;;;;4972997;28;20196;-70
2022/01/03 06:59:46;;;;;;;1999.90;999.90;;;10.00;99.90;;;;;;4972829;28;20460;-70
2022/01/03 07:02:12;;;;;;;1999.90;999.90;;;10.00;99.90;;;;;;4973335;28;20587;-69
2022/01/03 07:04:37;;;;;;;1999.90;999.90;;;10.00;99.90;;;;;;4973297;28;20254;-67
2022/01/03 07:07:03;;;;;;;1999.90;999.90;;;10.10;99.90;;;;;;4973466;28;20181;-68
2022/01/03 07:09:29;;;;;;;1999.90;999.90;;;10.10;99.90;;;;;;4973454;28;20200;-68
2022/01/03 07:11:55;;;;;;;1999.90;999.90;;;10.10;99.90;;;;;;4973608;28;20500;-68
2022/01/03 07:19:38;;;;;;;1999.90;999.90;;;10.10;99.90;;;;;;4973769;28;20426;-68
2022/01/03 07:22:05;;;;;;;1999.90;999.90;;;10.00;99.90;;;;;;4973688;28;20418;-68
2022/01/03 07:24:32;;;;;;;1999.90;999.90;;;10.00;99.90;;;;;;4973122;28;20455;-68
2022/01/03 07:27:01;;;;;;;1999.90;999.90;;;10.00;99.90;;;;;;4973539;28;20416;-68
2022/01/03 07:29:27;;;;;;;1999.90;999.90;;;10.00;99.90;;;;;;4973590;28;20947;-68
2022/01/03 07:31:52;;;;;;;1999.90;999.90;;;10.00;99.90;;;;;;4973376;28;20452;-70
2022/01/03 07:34:18;;;;;;;1999.90;999.90;;;10.00;99.90;;;;;;4973055;28;20303;-68
2022/01/03 07:36:43;;;;;;;1999.90;999.90;;;10.00;99.90;;;;;;4973026;28;20173;-68
2022/01/03 07:39:09;;;;;;;1999.90;999.90;;;10.00;99.90;;;;;;4972966;28;20221;-68
2022/01/03 07:41:35;;;;;;;1999.90;999.90;;;10.10;99.90;;;;;;4973043;28;20537;-69
2022/01/03 07:44:00;;;;;;;1999.90;999.90;;;10.10;99.90;;;;;;4972682;28;20266;-69
2022/01/03 07:46:26;;;;;;;1999.90;999.90;;;10.00;99.90;;;;;;4972348;28;20709;-68
2022/01/03 07:48:51;;;;;;;1999.90;999.90;;;9.90;99.90;;;;;;4972134;28;20206;-69
2022/01/03 07:51:17;;;;;;;1999.90;999.90;;;9.80;99.90;;;;;;4971917;28;20551;-69
2022/01/03 07:53:43;;;;;;;1999.90;999.90;;;9.70;99.90;;;;;;4972312;28;20174;-69
2022/01/03 07:56:10;;;;;;;1999.90;999.90;;;9.60;99.90;;;;;;4971904;28;20204;-68
2022/01/03 07:58:36;;;;;;;1999.90;999.90;;;9.60;99.90;;;;;;4972300;28;20560;-69
2022/01/03 08:01:02;;;;;;;1999.90;999.90;;;9.60;99.90;;;;;;4972092;28;20403;-69
2022/01/03 08:03:27;;;;;;;1999.90;999.90;;;9.60;99.90;;;;;;4972110;28;20423;-68
2022/01/03 08:05:53;;;;;;;1999.90;999.90;;;9.60;99.90;;;;;;4971768;28;20418;-71
2022/01/03 08:08:19;;;;;;;1999.90;999.90;;;9.50;99.90;;;;;;4971990;28;20263;-68
2022/01/03 08:10:46;;;;;;;1999.90;999.90;;;9.50;99.90;;;;;;4972118;28;20183;-68
2022/01/03 08:13:12;;;;;;;1999.90;999.90;;;9.50;99.90;;;;;;4972075;28;20259;-69
2022/01/03 08:15:38;;;;;;;1999.90;999.90;;;9.50;99.90;;;;;;4971772;28;20440;-69
2022/01/03 08:18:04;;;;;;;1999.90;999.90;;;9.60;99.90;;;;;;4972078;28;20455;-68
2022/01/03 08:20:30;;;;;;;1999.90;999.90;;;9.70;99.90;;;;;;4971927;28;20462;-68
2022/01/03 08:22:55;;;;;;;1999.90;999.90;;;9.70;99.90;;;;;;4971848;28;20498;-70
2022/01/03 08:25:21;;;;;;;1999.90;999.90;;;9.80;99.90;;;;;;4971566;28;20171;-68
2022/01/03 08:27:47;;;;;;;1999.90;999.90;;;9.80;99.90;;;;;;4971714;28;20647;-68
2022/01/03 08:30:12;;;;;;;1999.90;999.90;;;9.90;99.90;;;;;;4971954;28;20172;-68
2022/01/03 08:32:38;;;;;;;1999.90;999.90;;;10.00;99.90;;;;;;4971686;28;20204;-69
2022/01/03 08:35:04;;;;;;;1999.90;999.90;;;10.00;99.90;;;;;;4971420;28;20475;-70
2022/01/03 08:37:30;;;;;;;1999.90;999.90;;;10.10;99.90;;;;;;4971792;28;20173;-70
2022/01/03 08:39:58;;;;;;;1999.90;999.90;;;10.20;99.90;;;;;;4971700;28;20428;-68
2022/01/03 08:42:25;;;;;;;1999.90;999.90;;;10.30;99.90;;;;;;4971984;28;20180;-68
2022/01/03 08:44:51;;;;;;;1999.90;999.90;;;10.30;99.90;;;;;;4971416;28;20418;-68
2022/01/03 08:47:16;;;;;;;1999.90;999.90;;;10.40;99.90;;;;;;4971481;28;20409;-68
2022/01/03 08:49:42;;;;;;;1999.90;999.90;;;10.50;99.90;;;;;;4971390;28;20571;-67
2022/01/03 08:52:07;;;;;;;1999.90;999.90;;;10.60;99.90;;;;;;4971523;28;20193;-68
2022/01/03 08:54:33;;;;;;;1999.90;999.90;;;10.60;99.90;;;;;;4971406;28;20207;-68
2022/01/03 08:56:59;;;;;;;1999.90;999.90;;;10.60;99.90;;;;;;4971677;28;20169;-68
2022/01/03 08:59:26;;;;;;;1999.90;999.90;;;10.60;99.90;;;;;;4971359;28;20538;-68
2022/01/03 09:01:51;;;;;;;1999.90;999.90;;;10.70;99.90;;;;;;4970985;28;20479;-69
2022/01/03 09:04:17;;;;;;;1999.90;999.90;;;10.70;99.90;;;;;;4971576;28;20408;-70
2022/01/03 09:06:42;;;;;;;1999.90;999.90;;;10.80;99.90;;;;;;4971526;28;20172;-70
2022/01/03 09:09:08;;;;;;;1999.90;999.90;;;10.80;99.90;;;;;;4971393;28;20251;-70
2022/01/03 09:11:34;;;;;;;1999.90;999.90;;;10.80;99.90;;;;;;4971467;28;20741;-70
2022/01/03 09:13:59;;;;;;;1999.90;999.90;;;10.80;99.90;;;;;;4971097;28;20230;-70
2022/01/03 09:16:25;;;;;;;1999.90;999.90;;;10.80;99.90;;;;;;4971427;28;20419;-69
2022/01/03 09:18:51;;;;;;;1999.90;999.90;;;10.90;99.90;;;;;;4971162;28;20190;-68
2022/01/03 09:21:16;;;;;;;1999.90;999.90;;;10.80;99.90;;;;;;4971235;28;20172;-70
2022/01/03 09:23:47;;;;;;;1999.90;999.90;;;10.80;99.90;;;;;;4971190;28;20173;-70
2022/01/03 09:28:57;;;;;;;1999.90;999.90;;;10.90;99.90;;;;;;4971282;28;20794;-70
2022/01/03 09:31:35;;;;;;;1999.90;999.90;;;10.90;99.90;;;;;;4970847;28;20405;-70
2022/01/03 09:34:04;;;;;;;1999.90;999.90;;;10.90;99.90;;;;;;4970915;28;20169;-70
2022/01/03 09:36:30;;;;;;;1999.90;999.90;;;10.90;99.90;;;;;;4970946;28;20899;-70
2022/01/03 09:38:57;;;;;;;1999.90;999.90;;;10.90;99.90;;;;;;4972145;28;20420;-70
2022/01/03 09:41:25;;;;;;;1999.90;999.90;;;10.90;99.90;;;;;;4975441;28;20415;-71
2022/01/03 09:44:09;;;;;;;1999.90;999.90;;;10.80;99.90;;;;;;4979933;28;20432;-71
2022/01/03 09:46:42;;;;;;;1999.90;999.90;;;10.90;99.90;;;;;;4976758;28;20428;-70
2022/01/03 09:49:11;;;;;;;1999.90;999.90;;;10.90;99.90;;;;;;4971501;28;20442;-68
2022/01/03 09:51:38;;;;;;;1999.90;999.90;;;11.00;99.90;;;;;;4972288;28;20409;-68
2022/01/03 09:54:08;;;;;;;1999.90;999.90;;;11.00;99.90;;;;;;4971122;28;20413;-68
2022/01/03 09:56:35;;;;;;;1999.90;999.90;;;11.00;99.90;;;;;;4975385;28;20479;-69
2022/01/03 09:59:02;;;;;;;1999.90;999.90;;;11.10;99.90;;;;;;4976791;28;20433;-69
2022/01/03 10:01:29;;;;;;;1999.90;999.90;;;11.10;99.90;;;;;;4978063;28;20490;-68
2022/01/03 10:03:55;;;;;;;1999.90;999.90;;;11.10;99.90;;;;;;4976864;28;20402;-65
2022/01/03 10:06:23;;;;;;;1999.90;999.90;;;11.20;99.90;;;;;;4974640;28;20920;-72
2022/01/03 10:08:49;;;;;;;1999.90;999.90;;;11.20;99.90;;;;;;4978165;28;20436;-72
2022/01/03 10:11:15;;;;;;;1999.90;999.90;;;11.20;99.90;;;;;;4974264;28;20413;-70
2022/01/03 10:13:41;;;;;;;1999.90;999.90;;;11.30;99.90;;;;;;4974700;28;20208;-70
2022/01/03 10:16:07;;;;;;;1999.90;999.90;;;11.30;99.90;;;;;;4975032;28;20508;-71
2022/01/03 10:18:33;;;;;;;1999.90;999.90;;;11.30;99.90;;;;;;4974991;28;20660;-71
2022/01/03 10:21:02;;;;;;;1999.90;999.90;;;11.40;99.90;;;;;;4980985;28;20412;-71
2022/01/03 10:23:29;;;;;;;1999.90;999.90;;;11.40;99.90;;;;;;4983249;28;20432;-71
2022/01/03 10:26:17;;;;;;;1999.90;999.90;;;11.30;99.90;;;;;;4983996;28;20532;-70
2022/01/03 10:28:43;;;;;;;1999.90;999.90;;;11.30;99.90;;;;;;4983465;28;20228;-71
2022/01/03 10:31:22;;;;;;;1999.90;999.90;;;11.40;99.90;;;;;;4982741;28;20413;-71
2022/01/03 10:34:04;;;;;;;1999.90;999.90;;;11.40;99.90;;;;;;4982602;28;20421;-71
2022/01/03 10:36:32;;;;;;;1999.90;999.90;;;11.50;99.90;;;;;;4978044;28;20422;-70
2022/01/03 10:39:10;;;;;;;1999.90;999.90;;;11.40;99.90;;;;;;4972025;28;20436;-70
2022/01/03 10:41:35;;;;;;;1999.90;999.90;;;11.40;99.90;;;;;;4971690;28;20396;-70
2022/01/03 10:44:01;;;;;;;1999.90;999.90;;;11.40;99.90;;;;;;4971608;28;20412;-69
2022/01/03 10:46:30;;;;;;;1999.90;999.90;;;11.30;99.90;;;;;;4970855;28;20185;-71
2022/01/03 10:49:08;;;;;;;1999.90;999.90;;;11.40;99.90;;;;;;4971284;28;20453;-70
2022/01/03 10:51:34;;;;;;;1999.90;999.90;;;11.40;99.90;;;;;;4971819;28;20409;-70
2022/01/03 10:54:00;;;;;;;1999.90;999.90;;;11.40;99.90;;;;;;4971729;28;20413;-69
2022/01/03 10:56:28;;;;;;;1999.90;999.90;;;11.40;99.90;;;;;;4971359;28;20765;-71
2022/01/03 10:58:56;;;;;;;1999.90;999.90;;;11.50;99.90;;;;;;4971827;28;20610;-70
2022/01/03 11:01:23;;;;;;;1999.90;999.90;;;11.60;99.90;;;;;;4971970;28;20501;-71
2022/01/03 11:03:50;;;;;;;1999.90;999.90;;;11.70;99.90;;;;;;4971395;28;20417;-71
2022/01/03 11:11:43;;;;;;;1999.90;999.90;;;11.40;99.90;;;;;;4971134;28;20427;-69
2022/01/03 11:14:30;;;;;;;1999.90;999.90;;;11.40;99.90;;;;;;4971441;28;20415;-71
2022/01/03 11:16:55;;;;;;;1999.90;999.90;;;11.40;99.90;;;;;;4971567;28;20768;-70
2022/01/03 11:19:37;;;;;;;1999.90;999.90;;;11.30;99.90;;;;;;4970887;28;20439;-69
2022/01/03 11:22:03;;;;;;;1999.90;999.90;;;11.20;99.90;;;;;;4971452;28;20186;-70
2022/01/03 11:24:29;;;;;;;1999.90;999.90;;;11.10;99.90;;;;;;4970929;28;20984;-70
2022/01/03 11:26:56;;;;;;;1999.90;999.90;;;11.10;99.90;;;;;;4970319;28;20253;-69
2022/01/03 11:29:22;;;;;;;1999.90;999.90;;;11.10;99.90;;;;;;4971066;28;20200;-69
2022/01/03 11:31:51;;;;;;;1999.90;999.90;;;11.10;99.90;;;;;;4971112;28;20472;-69
2022/01/03 11:34:23;;;;;;;1999.90;999.90;;;11.10;99.90;;;;;;4970527;28;20419;-69
2022/01/03 11:36:49;;;;;;;1999.90;999.90;;;11.10;99.90;;;;;;4970940;28;20937;-70
2022/01/03 11:39:19;;;;;;;1999.90;999.90;;;11.10;99.90;;;;;;4971278;28;20831;-69
2022/01/03 11:41:45;;;;;;;1999.90;999.90;;;11.10;99.90;;;;;;4970848;28;20787;-68
2022/01/03 11:44:12;;;;;;;1999.90;999.90;;;11.20;99.90;;;;;;4970493;28;20422;-69
2022/01/03 11:46:40;;;;;;;1999.90;999.90;;;11.20;99.90;;;;;;4971158;28;20503;-70
2022/01/03 11:49:06;;;;;;;1999.90;999.90;;;11.20;99.90;;;;;;4970022;28;20900;-70
2022/01/03 11:51:34;;;;;;;1999.90;999.90;;;11.30;99.90;;;;;;4970593;28;20473;-70
2022/01/03 11:54:01;;;;;;;1999.90;999.90;;;11.40;99.90;;;;;;4970595;28;20418;-70
2022/01/03 11:56:29;;;;;;;1999.90;999.90;;;11.40;99.90;;;;;;4970401;28;20486;-69
2022/01/03 11:59:21;;;;;;;1999.90;999.90;;;11.40;99.90;;;;;;4970853;28;20464;-70
2022/01/03 12:04:40;;;;;;;1999.90;999.90;;;11.40;99.90;;;;;;4970277;28;20400;-70
2022/01/03 12:07:14;;;;;;;1999.90;999.90;;;11.30;99.90;;;;;;4970731;28;20432;-69
2022/01/03 12:09:46;;;;;;;1999.90;999.90;;;11.40;99.90;;;;;;4970624;28;20511;-70
2022/01/03 12:12:33;;;;;;;1999.90;999.90;;;11.40;99.90;;;;;;4970210;28;20471;-70
2022/01/03 12:15:01;;;;;;;1999.90;999.90;;;11.50;99.90;;;;;;4970603;28;20557;-70
2022/01/03 12:17:58;;;;;;;1999.90;999.90;;;11.40;99.90;;;;;;4970278;28;20845;-70
2022/01/03 12:20:41;;;;;;;1999.90;999.90;;;11.50;99.90;;;;;;4954601;28;20429;-70
2022/01/03 12:23:07;;;;;;;1999.90;999.90;;;11.50;99.90;;;;;;4970334;28;20898;-71